Humidity-temperature Sensor

Selected Measurement Type: Air Temperature

 
Air Temperature [°C]     6 entries per hour
Showing data from 3/11/2023 (00:00:00 Z) to 3/8/2023 (00:01:00 Z)
Previous Next [ Day | 3-Days | 7-Days ]
First Last
Prev [ Day | 3-Days | 7-Days ] Next
First Last

Start Time:     :
End Time:     :     
Time (in GMT) :00 :50 :40 :30 :20 :10
Previous Next [ Day | 3-Days | 7-Days ]
First Last
Prev [ Day | 3-Days | 7-Days ] Next
First Last


123 => good data
MM => data is determined as missing
-- => data not received/configured
Back to Top Back to Top
3/11/2023 00:00 to 23:10 25.73 26.48 27.50 27.62 27.70 27.49
3/10/2023 23:00 to 22:10 27.51 27.41 27.48 27.57 27.53 27.62
3/10/2023 22:00 to 21:10 27.59 27.46 27.63 27.63 27.66 27.45
3/10/2023 21:00 to 20:10 27.48 27.50 27.66 27.47 27.65 27.68
3/10/2023 20:00 to 19:10 27.77 27.89 27.77 27.64 27.63 27.68
3/10/2023 19:00 to 18:10 27.33 27.60 27.51 27.49 27.30 27.08
3/10/2023 18:00 to 17:10 27.08 27.01 27.05 26.97 26.93 27.08
3/10/2023 17:00 to 16:10 26.91 26.92 27.02 26.87 26.89 26.96
3/10/2023 16:00 to 15:10 27.06 26.95 26.93 26.98 26.87 26.93
3/10/2023 15:00 to 14:10 26.85 26.91 26.96 26.95 26.92 27.02
3/10/2023 14:00 to 13:10 26.97 27.03 26.94 26.84 26.83 26.99
3/10/2023 13:00 to 12:10 26.84 26.90 26.79 27.00 26.91 26.77
3/10/2023 12:00 to 11:10 26.76 26.62 26.62 26.74 26.86 26.79
3/10/2023 11:00 to 10:10 26.68 26.83 27.32 27.28 27.24 27.02
3/10/2023 10:00 to 9:10 26.89 26.90 27.13 26.77 26.82 27.00
3/10/2023 09:00 to 8:10 27.15 27.37 27.15 26.94 27.38 27.41
3/10/2023 08:00 to 7:10 27.56 27.53 27.47 27.50 27.50 27.36
3/10/2023 07:00 to 6:10 27.39 27.35 27.40 27.35 27.40 27.26
3/10/2023 06:00 to 5:10 27.26 27.25 27.19 27.20 27.23 27.25
3/10/2023 05:00 to 4:10 27.23 27.30 27.27 27.41 27.40 27.31
3/10/2023 04:00 to 3:10 27.39 27.28 27.37 27.26 27.40 27.36
3/10/2023 03:00 to 2:10 27.37 27.48 27.40 27.43 27.41 27.39
3/10/2023 02:00 to 1:10 27.25 27.34 27.31 27.21 27.20 27.09
3/10/2023 01:00 to 0:10 27.08 27.00 27.14 27.03 27.09 27.13
3/10/2023 00:00 to 23:10 26.99 27.09 27.11 27.04 27.04 27.07
3/9/2023 23:00 to 22:10 27.03 27.03 27.17 27.03 27.04 27.21
3/9/2023 22:00 to 21:10 27.26 27.33 27.24 27.19 27.15 27.28
3/9/2023 21:00 to 20:10 27.10 27.10 27.15 27.08 27.09 27.15
3/9/2023 20:00 to 19:10 27.05 26.96 27.06 26.99 26.82 26.92
3/9/2023 19:00 to 18:10 26.88 26.92 26.75 26.83 26.77 26.75
3/9/2023 18:00 to 17:10 26.70 26.60 26.61 26.70 26.66 26.64
3/9/2023 17:00 to 16:10 26.61 26.53 26.50 26.64 26.56 26.53
3/9/2023 16:00 to 15:10 26.52 26.54 26.51 26.58 26.57 26.52
3/9/2023 15:00 to 14:10 26.45 26.56 26.60 26.47 26.61 26.60
3/9/2023 14:00 to 13:10 26.52 26.51 26.62 26.77 26.67 26.61
3/9/2023 13:00 to 12:10 26.59 26.68 26.60 26.72 26.80 26.79
3/9/2023 12:00 to 11:10 26.66 26.72 26.69 26.75 26.68 26.87
3/9/2023 11:00 to 10:10 26.89 26.87 26.92 26.84 26.80 26.88
3/9/2023 10:00 to 9:10 26.82 26.86 26.84 26.73 26.85 26.82
3/9/2023 09:00 to 8:10 26.89 26.80 26.92 26.92 26.89 26.88
3/9/2023 08:00 to 7:10 -- -- -- -- -- --
3/9/2023 07:00 to 6:10 26.87 26.89 26.96 26.86 26.85 26.90
3/9/2023 06:00 to 5:10 26.80 26.85 26.84 26.89 26.95 27.07
3/9/2023 05:00 to 4:10 27.03 27.16 27.18 27.20 27.13 27.27
3/9/2023 04:00 to 3:10 27.20 27.09 26.89 27.04 27.02 27.09
3/9/2023 03:00 to 2:10 26.94 26.93 26.92 26.98 26.90 26.89
3/9/2023 02:00 to 1:10 26.94 27.02 26.83 26.89 26.94 26.85
3/9/2023 01:00 to 0:10 26.81 26.85 26.88 26.85 26.92 26.85
3/9/2023 00:00 to 23:10 26.83 26.98 26.91 26.88 26.93 26.85
3/8/2023 23:00 to 22:10 26.94 26.82 26.90 26.96 27.00 26.98
3/8/2023 22:00 to 21:10 26.95 26.98 27.03 26.96 26.94 26.98
3/8/2023 21:00 to 20:10 26.85 26.92 26.97 26.93 27.06 26.92
3/8/2023 20:00 to 19:10 26.95 26.95 26.96 26.95 26.82 26.86
3/8/2023 19:00 to 18:10 26.91 26.91 26.93 26.93 27.01 26.78
3/8/2023 18:00 to 17:10 26.79 26.85 26.78 26.74 26.77 26.73
3/8/2023 17:00 to 16:10 26.70 26.82 26.69 26.76 26.79 26.78
3/8/2023 16:00 to 15:10 26.96 26.81 26.76 26.87 26.81 26.85
3/8/2023 15:00 to 14:10 26.91 27.04 26.77 26.77 27.03 27.03
3/8/2023 14:00 to 13:10 26.91 26.97 26.91 26.93 26.90 26.93
3/8/2023 13:00 to 12:10 26.96 26.91 27.08 26.97 26.96 27.16
3/8/2023 12:00 to 11:10 27.04 27.02 27.16 27.01 27.19 27.07
3/8/2023 11:00 to 10:10 27.20 27.05 27.14 27.19 27.17 27.17
3/8/2023 10:00 to 9:10 27.04 27.15 27.07 27.11 27.09 27.06
3/8/2023 09:00 to 8:10 27.16 27.18 27.09 27.15 27.03 27.09
3/8/2023 08:00 to 7:10 27.13 27.05 27.17 27.07 27.13 27.15
3/8/2023 07:00 to 6:10 27.08 26.94 27.11 26.99 27.04 27.07
3/8/2023 06:00 to 5:10 27.12 27.03 27.06 27.19 27.11 27.11
3/8/2023 05:00 to 4:10 27.01 27.10 27.30 27.14 27.35 27.14
3/8/2023 04:00 to 3:10 27.43 27.16 27.25 27.37 27.26 27.38
3/8/2023 03:00 to 2:10 27.17 27.29 27.28 27.16 27.11 27.12
3/8/2023 02:00 to 1:10 27.19 27.14 27.14 27.19 27.19 27.18
3/8/2023 01:00 to 0:10 27.09 27.12 27.09 27.04 27.14 27.09